Dominia — ICFW — position and weather

sailwx.info

Track history (hours):
 
Tides and Currents Weather Stations Pressure Air Temp Water Temp Dewpoint Dewpoint Depression Visibility Wind Speed Wind Dir Waves Ship Positions

Dominia

Last reported at 2014-Dec-19 04:32 UTC. Time now 2014-Dec-19 12:14 UTC.
Position N 34°31' E 032°21'.

Length 176 m; draft 10.1 m.

Type: Ship (hazmat cat A). MMSI: 247273400.

Date/timePositionNaut miles runAvg speedWind from/ knotsBaromVisibWave heightAir tempDewpointWater temp
2014-Dec-19 04:32N 34°31' E 032°21'1212.2
2014-Dec-19 03:33N 34°29' E 032°35'1212.1
2014-Dec-19 02:33N 34°29' E 032°50'1211.6
2014-Dec-19 01:33N 34°30' E 033°04'1211.8
2014-Dec-19 00:33N 34°38' E 033°14'6 6.4
2014-Dec-18 23:33N 34°43' E 033°19'0 0.0
2014-Dec-17 07:20N 34°43' E 033°19'1 1.4
2014-Dec-17 06:34N 34°42' E 033°20'0 0.4
2014-Dec-17 05:30N 34°41' E 033°20'0 0.0
2014-Dec-17 04:33N 34°41' E 033°20'0 0.0
2014-Dec-17 03:33N 34°41' E 033°20'0 0.0
2014-Dec-17 02:33N 34°41' E 033°20'0 0.0
2014-Dec-17 01:30N 34°41' E 033°20'0 0.0
2014-Dec-17 00:33N 34°41' E 033°20'0 0.0
2014-Dec-16 23:33N 34°41' E 033°20'0 0.0
2014-Dec-16 22:33N 34°41' E 033°20'0 0.1
2014-Dec-16 21:33N 34°41' E 033°20'8 7.6
2014-Dec-16 20:33N 34°37' E 033°13'1414.1
2014-Dec-16 19:33N 34°29' E 032°58'1414.0
2014-Dec-16 18:33N 34°29' E 032°41'1513.3
2014-Dec-16 17:24N 34°31' E 032°23'25412.8
2014-Dec-15 21:32N 35°51' E 027°28'1313.0
2014-Dec-15 20:33N 36°00' E 027°18'1312.8
2014-Dec-15 19:33N 36°10' E 027°07'1211.9
2014-Dec-15 18:33N 36°18' E 026°57'1211.6
2014-Dec-15 17:33N 36°27' E 026°47'1212.5
2014-Dec-15 16:33N 36°36' E 026°37'1312.6
2014-Dec-15 15:33N 36°46' E 026°27'1312.8
2014-Dec-15 14:33N 36°55' E 026°16'1312.6
2014-Dec-15 13:33N 37°06' E 026°07'1312.9
2014-Dec-15 12:33N 37°17' E 025°59'1312.8
2014-Dec-15 11:33N 37°28' E 025°51'1212.4
2014-Dec-15 10:33N 37°39' E 025°44'1312.6
2014-Dec-15 09:30N 37°51' E 025°36'1212.9
2014-Dec-15 08:33N 38°02' E 025°29'1312.7
2014-Dec-15 07:33N 38°13' E 025°22'1312.8
2014-Dec-15 06:33N 38°24' E 025°14'1312.7
2014-Dec-15 05:33N 38°35' E 025°06'7512.5
2014-Dec-14 23:33N 39°40' E 024°16'1312.2
2014-Dec-14 22:29N 39°40' E 023°59'  
2014-Dec-12 07:04N 39°42' E 024°03'713.9
2014-Dec-12 06:34N 39°42' E 024°12'2713.2
2014-Dec-12 04:30N 39°42' E 024°47'220 6.4
2014-Dec-10 18:09N 41°17' E 029°09'5 8.7
2014-Dec-10 17:33N 41°22' E 029°12'9 9.4
2014-Dec-10 16:33N 41°26' E 029°23'9 8.8
2014-Dec-10 15:33N 41°22' E 029°33'2 1.5
2014-Dec-10 14:33N 41°20' E 029°34'2 2.0
2014-Dec-10 13:33N 41°21' E 029°32'2 2.1
2014-Dec-10 12:33N 41°23' E 029°29'2 1.8
2014-Dec-10 11:33N 41°24' E 029°28'2 1.7
2014-Dec-10 10:33N 41°25' E 029°26'2 1.8
2014-Dec-10 09:33N 41°27' E 029°25'2 2.0
2014-Dec-10 08:33N 41°29' E 029°24'2 2.2
2014-Dec-10 07:33N 41°31' E 029°23'2 1.9
2014-Dec-10 06:33N 41°32' E 029°22'7 6.8
2014-Dec-10 05:33N 41°26' E 029°26'1 1.1
2014-Dec-10 04:33N 41°27' E 029°25'2 2.3
2014-Dec-10 03:33N 41°29' E 029°23'1 0.2
2014-Dec-09 22:04N 41°29' E 029°21'3 5.1
2014-Dec-09 21:33N 41°27' E 029°21'7 7.2
2014-Dec-09 20:33N 41°20' E 029°18'1 0.9
2014-Dec-09 19:33N 41°20' E 029°16'1 1.5
2014-Dec-09 18:33N 41°21' E 029°15'2 1.2
2014-Dec-09 17:11N 41°22' E 029°13'1 0.9
2014-Dec-09 16:14N 41°23' E 029°13'3 1.0
2014-Dec-09 13:25N 41°26' E 029°12'1 1.0
2014-Dec-09 12:33N 41°27' E 029°11'1 1.0
2014-Dec-09 11:33N 41°28' E 029°11'1 0.7
2014-Dec-09 10:33N 41°28' E 029°11'1 0.5
2014-Dec-09 09:33N 41°29' E 029°11'1 0.6
2014-Dec-09 08:13N 41°29' E 029°11'0 0.7
2014-Dec-09 07:33N 41°30' E 029°12'1 0.7
2014-Dec-09 06:31N 41°30' E 029°12'1 0.8
2014-Dec-09 05:33N 41°31' E 029°12'0 0.2
2014-Dec-09 04:33N 41°31' E 029°13'  
Track history (hours):
 
Tides and Currents Weather Stations Pressure Air Temp Water Temp Dewpoint Dewpoint Depression Visibility Wind Speed Wind Dir Waves Ship Positions

Dominia

Last reported at 2014-Dec-19 04:32 UTC. Time now 2014-Dec-19 12:14 UTC.
Position N 34°31' E 032°21'.

Length 176 m; draft 10.1 m.

Type: Ship (hazmat cat A). MMSI: 247273400.

Date/timePositionNaut miles runAvg speedWind from/ knotsBaromVisibWave heightAir tempDewpointWater temp
2014-Dec-19 04:32N 34°31' E 032°21'1212.2
2014-Dec-19 03:33N 34°29' E 032°35'1212.1
2014-Dec-19 02:33N 34°29' E 032°50'1211.6
2014-Dec-19 01:33N 34°30' E 033°04'1211.8
2014-Dec-19 00:33N 34°38' E 033°14'6 6.4
2014-Dec-18 23:33N 34°43' E 033°19'0 0.0
2014-Dec-17 07:20N 34°43' E 033°19'1 1.4
2014-Dec-17 06:34N 34°42' E 033°20'0 0.4
2014-Dec-17 05:30N 34°41' E 033°20'0 0.0
2014-Dec-17 04:33N 34°41' E 033°20'0 0.0
2014-Dec-17 03:33N 34°41' E 033°20'0 0.0
2014-Dec-17 02:33N 34°41' E 033°20'0 0.0
2014-Dec-17 01:30N 34°41' E 033°20'0 0.0
2014-Dec-17 00:33N 34°41' E 033°20'0 0.0
2014-Dec-16 23:33N 34°41' E 033°20'0 0.0
2014-Dec-16 22:33N 34°41' E 033°20'0 0.1
2014-Dec-16 21:33N 34°41' E 033°20'8 7.6
2014-Dec-16 20:33N 34°37' E 033°13'1414.1
2014-Dec-16 19:33N 34°29' E 032°58'1414.0
2014-Dec-16 18:33N 34°29' E 032°41'1513.3
2014-Dec-16 17:24N 34°31' E 032°23'25412.8
2014-Dec-15 21:32N 35°51' E 027°28'1313.0
2014-Dec-15 20:33N 36°00' E 027°18'1312.8
2014-Dec-15 19:33N 36°10' E 027°07'1211.9
2014-Dec-15 18:33N 36°18' E 026°57'1211.6
2014-Dec-15 17:33N 36°27' E 026°47'1212.5
2014-Dec-15 16:33N 36°36' E 026°37'1312.6
2014-Dec-15 15:33N 36°46' E 026°27'1312.8
2014-Dec-15 14:33N 36°55' E 026°16'1312.6
2014-Dec-15 13:33N 37°06' E 026°07'1312.9
2014-Dec-15 12:33N 37°17' E 025°59'1312.8
2014-Dec-15 11:33N 37°28' E 025°51'1212.4
2014-Dec-15 10:33N 37°39' E 025°44'1312.6
2014-Dec-15 09:30N 37°51' E 025°36'1212.9
2014-Dec-15 08:33N 38°02' E 025°29'1312.7
2014-Dec-15 07:33N 38°13' E 025°22'1312.8
2014-Dec-15 06:33N 38°24' E 025°14'1312.7
2014-Dec-15 05:33N 38°35' E 025°06'7512.5
2014-Dec-14 23:33N 39°40' E 024°16'1312.2
2014-Dec-14 22:29N 39°40' E 023°59'  
2014-Dec-12 07:04N 39°42' E 024°03'713.9
2014-Dec-12 06:34N 39°42' E 024°12'2713.2
2014-Dec-12 04:30N 39°42' E 024°47'220 6.4
2014-Dec-10 18:09N 41°17' E 029°09'5 8.7
2014-Dec-10 17:33N 41°22' E 029°12'9 9.4
2014-Dec-10 16:33N 41°26' E 029°23'9 8.8
2014-Dec-10 15:33N 41°22' E 029°33'2 1.5
2014-Dec-10 14:33N 41°20' E 029°34'2 2.0
2014-Dec-10 13:33N 41°21' E 029°32'2 2.1
2014-Dec-10 12:33N 41°23' E 029°29'2 1.8
2014-Dec-10 11:33N 41°24' E 029°28'2 1.7
2014-Dec-10 10:33N 41°25' E 029°26'2 1.8
2014-Dec-10 09:33N 41°27' E 029°25'2 2.0
2014-Dec-10 08:33N 41°29' E 029°24'2 2.2
2014-Dec-10 07:33N 41°31' E 029°23'2 1.9
2014-Dec-10 06:33N 41°32' E 029°22'7 6.8
2014-Dec-10 05:33N 41°26' E 029°26'1 1.1
2014-Dec-10 04:33N 41°27' E 029°25'2 2.3
2014-Dec-10 03:33N 41°29' E 029°23'1 0.2
2014-Dec-09 22:04N 41°29' E 029°21'3 5.1
2014-Dec-09 21:33N 41°27' E 029°21'7 7.2
2014-Dec-09 20:33N 41°20' E 029°18'1 0.9
2014-Dec-09 19:33N 41°20' E 029°16'1 1.5
2014-Dec-09 18:33N 41°21' E 029°15'2 1.2
2014-Dec-09 17:11N 41°22' E 029°13'1 0.9
2014-Dec-09 16:14N 41°23' E 029°13'3 1.0
2014-Dec-09 13:25N 41°26' E 029°12'1 1.0
2014-Dec-09 12:33N 41°27' E 029°11'1 1.0
2014-Dec-09 11:33N 41°28' E 029°11'1 0.7
2014-Dec-09 10:33N 41°28' E 029°11'1 0.5
2014-Dec-09 09:33N 41°29' E 029°11'1 0.6
2014-Dec-09 08:13N 41°29' E 029°11'0 0.7
2014-Dec-09 07:33N 41°30' E 029°12'1 0.7
2014-Dec-09 06:31N 41°30' E 029°12'1 0.8
2014-Dec-09 05:33N 41°31' E 029°12'0 0.2
2014-Dec-09 04:33N 41°31' E 029°13'  

Dump ship's entire track history